Time;durP1;ratioP1;P1;durP2;ratioP2;P2;SDS_P1;SDS_P2;PMS_P1;PMS_P2;Temp;Humidity;BMP_temperature;BMP_pressure;BME280_temperature;BME280_humidity;BME280_pressure;Samples;Min_cycle;Max_cycle;Signal;HPM_P1;HPM_P2
2024/02/03 00:00:00;;;;;;;18.75;4.90;;;13.60;69.30;;;;;;5007762;28;20512;-84
2024/02/03 00:02:26;;;;;;;13.18;4.20;;;13.60;69.30;;;;;;5002956;28;20124;-84
2024/02/03 00:04:52;;;;;;;12.60;3.60;;;13.60;69.30;;;;;;5030530;28;20101;-83
2024/02/03 00:07:18;;;;;;;10.07;3.67;;;13.60;69.40;;;;;;5002829;28;20037;-81
2024/02/03 00:09:47;;;;;;;11.13;4.43;;;13.60;69.40;;;;;;5020977;28;20039;-81
2024/02/03 00:12:18;;;;;;;14.00;4.53;;;13.60;69.40;;;;;;5004803;28;20045;-82
2024/02/03 00:14:44;;;;;;;15.35;4.70;;;13.60;69.40;;;;;;5017533;28;20082;-81
2024/02/03 00:17:10;;;;;;;14.93;3.58;;;13.60;69.50;;;;;;4989464;28;20064;-84
2024/02/03 00:19:36;;;;;;;13.77;3.92;;;13.60;69.50;;;;;;5020804;28;20086;-83
2024/02/03 00:22:02;;;;;;;12.43;4.30;;;13.60;69.50;;;;;;5020904;28;20033;-83
2024/02/03 00:24:29;;;;;;;11.60;4.50;;;13.50;69.40;;;;;;5006447;28;20124;-84
2024/02/03 00:27:02;;;;;;;17.20;5.93;;;13.60;69.60;;;;;;5020724;28;20036;-84
2024/02/03 00:29:31;;;;;;;16.98;4.30;;;13.50;69.40;;;;;;5018538;28;20389;-84
2024/02/03 00:31:57;;;;;;;20.00;5.38;;;13.50;69.40;;;;;;5019355;28;20040;-83
2024/02/03 00:34:23;;;;;;;14.63;4.43;;;13.50;69.50;;;;;;5005530;28;20264;-83
2024/02/03 00:36:50;;;;;;;13.35;5.35;;;13.50;69.50;;;;;;5016470;28;20536;-86
2024/02/03 00:39:17;;;;;;;20.02;6.20;;;13.50;69.60;;;;;;5022246;28;20041;-81
2024/02/03 00:41:43;;;;;;;15.60;4.43;;;13.40;69.40;;;;;;5016090;28;20052;-83
2024/02/03 00:44:14;;;;;;;11.95;4.05;;;13.40;69.50;;;;;;5002233;28;20083;-82
2024/02/03 00:46:40;;;;;;;16.33;4.82;;;13.40;69.50;;;;;;4998255;28;20024;-82
2024/02/03 00:49:06;;;;;;;12.15;4.63;;;13.40;69.60;;;;;;5018606;28;20058;-82
2024/02/03 00:51:32;;;;;;;18.63;5.45;;;13.40;69.60;;;;;;4999709;28;20056;-81
2024/02/03 00:53:58;;;;;;;12.95;4.35;;;13.40;69.70;;;;;;5001540;28;20052;-80
2024/02/03 00:56:24;;;;;;;13.32;4.18;;;13.40;69.70;;;;;;4998720;28;20029;-79
2024/02/03 00:58:52;;;;;;;14.65;4.57;;;13.40;69.70;;;;;;5022185;28;20045;-79
2024/02/03 01:01:18;;;;;;;12.93;3.83;;;13.40;70.30;;;;;;5010264;28;20022;-79
2024/02/03 01:03:45;;;;;;;18.23;6.50;;;13.40;69.80;;;;;;5029389;28;20064;-79
2024/02/03 01:06:11;;;;;;;21.92;6.63;;;13.40;69.80;;;;;;5005079;28;20412;-80
2024/02/03 01:08:37;;;;;;;16.25;4.60;;;13.40;69.80;;;;;;5029599;28;20394;-80
2024/02/03 01:11:03;;;;;;;14.98;5.70;;;13.40;69.80;;;;;;5023850;28;20112;-83
2024/02/03 01:13:29;;;;;;;17.92;4.47;;;13.40;69.90;;;;;;5031114;28;20385;-83
2024/02/03 01:15:55;;;;;;;16.85;3.83;;;13.40;69.90;;;;;;5016091;28;20040;-83
2024/02/03 01:18:24;;;;;;;10.85;3.45;;;13.40;69.90;;;;;;5017743;28;20404;-82
2024/02/03 01:20:50;;;;;;;16.95;4.03;;;13.40;69.90;;;;;;5026948;28;20029;-84
2024/02/03 01:23:17;;;;;;;13.63;3.38;;;13.30;69.70;;;;;;5009327;28;20035;-83
2024/02/03 01:25:44;;;;;;;13.13;3.83;;;13.30;69.70;;;;;;4996116;28;20084;-83
2024/02/03 01:28:10;;;;;;;16.70;4.35;;;13.30;69.80;;;;;;5002556;28;20033;-83
2024/02/03 01:30:36;;;;;;;16.33;3.60;;;13.30;69.80;;;;;;5021527;28;20048;-82
2024/02/03 01:33:02;;;;;;;14.05;3.60;;;13.30;69.80;;;;;;5018158;28;20611;-84
2024/02/03 01:35:30;;;;;;;15.23;4.70;;;13.30;69.80;;;;;;5005694;28;20400;-82
2024/02/03 01:37:56;;;;;;;12.55;5.07;;;13.30;69.80;;;;;;5010472;28;20085;-82
2024/02/03 01:40:22;;;;;;;12.27;3.92;;;13.30;69.90;;;;;;5020762;28;20787;-81
2024/02/03 01:42:47;;;;;;;14.55;4.43;;;13.20;69.70;;;;;;5006725;28;21010;-82
2024/02/03 01:45:13;;;;;;;9.93;4.70;;;13.30;69.90;;;;;;5014579;28;20048;-82
2024/02/03 01:47:40;;;;;;;9.90;4.25;;;13.30;70.00;;;;;;5003515;28;20123;-82
2024/02/03 01:50:11;;;;;;;12.52;4.55;;;13.20;70.20;;;;;;5015877;28;20350;-82
2024/02/03 01:52:36;;;;;;;14.45;3.80;;;13.20;69.80;;;;;;5003862;28;20039;-83
2024/02/03 01:55:03;;;;;;;17.67;4.95;;;13.20;69.80;;;;;;5017840;28;20401;-82
2024/02/03 01:57:33;;;;;;;13.82;3.38;;;13.20;69.90;;;;;;5012855;28;20466;-82
2024/02/03 01:59:59;;;;;;;15.35;4.10;;;13.20;69.90;;;;;;5004034;28;20488;-82
2024/02/03 02:02:25;;;;;;;12.75;4.80;;;13.20;69.90;;;;;;5021750;28;20041;-82
2024/02/03 02:04:51;;;;;;;14.45;4.05;;;13.20;69.90;;;;;;5021530;28;20060;-82
2024/02/03 02:07:20;;;;;;;10.00;3.65;;;13.20;70.00;;;;;;5020420;28;20114;-83
2024/02/03 02:09:45;;;;;;;14.25;3.42;;;13.20;70.00;;;;;;5021418;28;20094;-83
2024/02/03 02:12:11;;;;;;;17.27;4.70;;;13.20;70.00;;;;;;5017261;28;20033;-82
2024/02/03 02:14:37;;;;;;;15.00;5.00;;;13.20;70.00;;;;;;5028180;28;20293;-84
2024/02/03 02:17:03;;;;;;;19.95;4.50;;;13.20;70.00;;;;;;5015928;28;20036;-86
2024/02/03 02:19:29;;;;;;;16.08;3.85;;;13.20;70.00;;;;;;4999284;28;20038;-83
2024/02/03 02:21:56;;;;;;;20.55;6.20;;;13.20;70.10;;;;;;4999353;28;20467;-84
2024/02/03 02:24:22;;;;;;;17.02;4.38;;;13.20;70.10;;;;;;5006788;28;20149;-83
2024/02/03 02:26:49;;;;;;;15.75;4.18;;;13.20;70.10;;;;;;5012514;28;20149;-82
2024/02/03 02:29:18;;;;;;;16.75;4.70;;;13.10;70.00;;;;;;5017176;28;20057;-82
2024/02/03 02:31:44;;;;;;;13.38;3.78;;;13.20;70.20;;;;;;5002661;28;20037;-81
2024/02/03 02:34:10;;;;;;;11.98;3.63;;;13.10;70.00;;;;;;5000927;28;20124;-82
2024/02/03 02:36:36;;;;;;;18.13;4.50;;;13.20;70.20;;;;;;5006546;28;20116;-80
2024/02/03 02:39:04;;;;;;;18.63;4.82;;;13.10;70.00;;;;;;5019304;28;20245;-82
2024/02/03 02:41:30;;;;;;;14.93;3.70;;;13.10;70.10;;;;;;4989243;28;20030;-83
2024/02/03 02:43:56;;;;;;;11.30;4.32;;;13.10;70.10;;;;;;5006231;28;21320;-84
2024/02/03 02:49:57;;;;;;;18.40;4.47;;;13.10;70.20;;;;;;4667481;24;20070;-84
2024/02/03 02:52:23;;;;;;;14.95;3.60;;;13.10;70.10;;;;;;4628549;30;20056;-84
2024/02/03 02:54:49;;;;;;;15.27;4.22;;;13.10;70.20;;;;;;4637750;30;20047;-83
2024/02/03 02:57:15;;;;;;;13.98;3.83;;;13.10;70.20;;;;;;4645667;30;20324;-83
2024/02/03 02:59:41;;;;;;;15.18;4.60;;;13.10;70.20;;;;;;4656892;30;20051;-83
2024/02/03 03:02:07;;;;;;;14.63;4.18;;;13.10;70.20;;;;;;4651373;30;20118;-83
2024/02/03 03:04:34;;;;;;;19.48;5.00;;;13.10;70.20;;;;;;4656033;30;20121;-83
2024/02/03 03:07:00;;;;;;;14.23;4.68;;;13.10;70.30;;;;;;4658536;30;20066;-83
2024/02/03 03:09:27;;;;;;;12.05;4.28;;;13.10;70.30;;;;;;4659244;30;20488;-83
2024/02/03 03:11:53;;;;;;;14.27;3.85;;;13.00;70.10;;;;;;4625213;30;20170;-83
2024/02/03 03:14:18;;;;;;;17.58;5.95;;;13.00;70.20;;;;;;4640213;30;20536;-84
2024/02/03 03:16:44;;;;;;;21.02;4.90;;;13.10;70.30;;;;;;4658030;30;20042;-83
2024/02/03 03:19:10;;;;;;;13.65;3.80;;;13.10;70.30;;;;;;4649688;30;20419;-83
2024/02/03 03:21:37;;;;;;;14.07;5.22;;;13.00;70.20;;;;;;4658354;30;20424;-83
2024/02/03 03:24:03;;;;;;;17.20;5.25;;;13.00;70.20;;;;;;4651783;30;20046;-82
2024/02/03 03:26:29;;;;;;;15.48;4.18;;;13.10;70.30;;;;;;4658353;30;20105;-82
2024/02/03 03:32:13;;;;;;;15.18;4.60;;;13.00;70.20;;;;;;4626811;30;20159;-84
2024/02/03 03:34:42;;;;;;;15.25;4.75;;;13.00;70.20;;;;;;4639663;30;20058;-84
2024/02/03 03:37:09;;;;;;;17.25;4.55;;;13.00;70.20;;;;;;4631773;30;20051;-83
2024/02/03 03:39:34;;;;;;;18.65;4.95;;;13.00;70.30;;;;;;4644503;30;20060;-84
2024/02/03 03:42:00;;;;;;;14.13;4.72;;;13.00;70.30;;;;;;4623750;30;20113;-81
2024/02/03 03:44:26;;;;;;;21.60;4.68;;;13.00;70.30;;;;;;4640911;30;20085;-82
2024/02/03 03:46:52;;;;;;;17.08;4.60;;;13.00;70.40;;;;;;4644710;30;20491;-82
2024/02/03 03:49:18;;;;;;;17.52;4.47;;;12.90;70.20;;;;;;4627309;30;20051;-80
2024/02/03 03:51:45;;;;;;;18.42;4.38;;;13.00;70.40;;;;;;4642031;30;20061;-83
2024/02/03 03:54:11;;;;;;;21.10;5.72;;;13.00;70.50;;;;;;4634500;30;20385;-82
2024/02/03 03:56:37;;;;;;;14.20;4.40;;;12.90;70.20;;;;;;4611345;30;20035;-82
2024/02/03 03:59:03;;;;;;;15.05;5.63;;;12.90;70.30;;;;;;4644140;30;20074;-81
2024/02/03 04:01:29;;;;;;;13.13;4.18;;;13.00;70.50;;;;;;4646179;30;20066;-82
2024/02/03 04:03:55;;;;;;;14.65;4.82;;;13.00;70.50;;;;;;4643409;30;20069;-81
2024/02/03 04:06:21;;;;;;;19.55;4.40;;;12.90;70.30;;;;;;4646514;30;20043;-83
2024/02/03 04:08:47;;;;;;;17.35;4.68;;;13.00;70.50;;;;;;4627865;30;20117;-81
2024/02/03 04:11:14;;;;;;;18.33;5.65;;;13.00;70.50;;;;;;4643321;30;20484;-81
2024/02/03 04:13:40;;;;;;;14.98;4.40;;;12.90;70.30;;;;;;4630765;30;20031;-82
2024/02/03 04:16:06;;;;;;;17.33;4.47;;;13.00;70.60;;;;;;4642965;30;20047;-81
2024/02/03 04:18:32;;;;;;;15.75;5.45;;;12.90;70.30;;;;;;4643208;30;20090;-81
2024/02/03 04:20:58;;;;;;;19.52;5.22;;;12.90;70.30;;;;;;4645716;30;20090;-82
2024/02/03 04:23:23;;;;;;;17.25;4.88;;;12.90;70.40;;;;;;4642757;30;20516;-81
2024/02/03 04:25:49;;;;;;;13.15;4.18;;;12.90;70.40;;;;;;4641138;30;20059;-82
2024/02/03 04:28:15;;;;;;;16.13;4.82;;;12.90;70.40;;;;;;4628456;30;20046;-82
2024/02/03 04:30:42;;;;;;;22.55;5.60;;;12.90;70.40;;;;;;4633420;30;20357;-83
2024/02/03 04:33:08;;;;;;;13.10;6.18;;;12.90;70.50;;;;;;4622612;30;20558;-81
2024/02/03 04:35:34;;;;;;;16.20;4.15;;;12.90;70.50;;;;;;4636641;30;20039;-81
2024/02/03 04:38:02;;;;;;;14.85;5.82;;;12.90;70.50;;;;;;4616700;30;20049;-81
2024/02/03 04:40:29;;;;;;;19.00;4.25;;;12.80;70.30;;;;;;4641562;30;20129;-81
2024/02/03 04:42:55;;;;;;;18.08;4.38;;;12.90;70.50;;;;;;4642820;30;20045;-81
2024/02/03 04:45:20;;;;;;;14.43;4.57;;;12.90;70.50;;;;;;4626131;30;20043;-81
2024/02/03 04:47:47;;;;;;;18.50;4.40;;;12.90;70.50;;;;;;4640632;30;20113;-80
2024/02/03 04:50:13;;;;;;;12.27;5.28;;;12.80;70.30;;;;;;4625925;30;20146;-82
2024/02/03 04:52:40;;;;;;;15.75;4.68;;;12.90;70.50;;;;;;4646296;30;20543;-82
2024/02/03 04:55:06;;;;;;;13.43;4.60;;;12.90;70.60;;;;;;4642266;30;20050;-81
2024/02/03 04:57:32;;;;;;;17.65;4.32;;;12.80;70.40;;;;;;4642004;30;20050;-81
2024/02/03 04:59:58;;;;;;;21.52;5.40;;;12.90;70.60;;;;;;4626503;30;20038;-81
2024/02/03 05:02:24;;;;;;;17.05;4.43;;;12.80;70.40;;;;;;4631908;30;20049;-81
2024/02/03 05:04:51;;;;;;;14.85;4.35;;;12.80;70.40;;;;;;4626048;30;20039;-81
2024/02/03 05:07:17;;;;;;;16.52;4.40;;;12.80;70.40;;;;;;4642396;30;20081;-80
2024/02/03 05:09:43;;;;;;;23.83;4.93;;;12.80;70.50;;;;;;4629065;30;20054;-82
2024/02/03 05:12:08;;;;;;;16.63;4.60;;;12.80;70.40;;;;;;4625112;30;20535;-81
2024/02/03 05:14:35;;;;;;;15.90;4.18;;;12.80;70.40;;;;;;4644972;30;20396;-80
2024/02/03 05:17:01;;;;;;;19.33;3.88;;;12.80;70.40;;;;;;4637159;30;20046;-82
2024/02/03 05:19:27;;;;;;;17.05;5.03;;;12.80;70.40;;;;;;4640901;30;20511;-80
2024/02/03 05:21:54;;;;;;;12.05;3.97;;;12.80;70.50;;;;;;4641919;30;20031;-80
2024/02/03 05:24:19;;;;;;;15.02;4.07;;;12.80;70.50;;;;;;4642952;30;20049;-89
2024/02/03 05:26:45;;;;;;;15.90;3.88;;;12.80;70.50;;;;;;4642853;30;20271;-81
2024/02/03 05:29:11;;;;;;;14.35;3.58;;;12.80;70.50;;;;;;4641585;30;20551;-82
2024/02/03 05:31:37;;;;;;;14.32;4.05;;;12.80;70.50;;;;;;4636804;30;20475;-84
2024/02/03 05:34:03;;;;;;;23.33;4.50;;;12.80;70.50;;;;;;4640582;30;20211;-81
2024/02/03 05:36:30;;;;;;;14.43;3.55;;;12.80;70.50;;;;;;4646473;30;20455;-82
2024/02/03 05:38:56;;;;;;;18.55;4.90;;;12.80;70.50;;;;;;4640384;30;20106;-83
2024/02/03 05:41:22;;;;;;;15.00;3.90;;;12.80;70.50;;;;;;4640380;30;20046;-83
2024/02/03 05:43:48;;;;;;;16.67;4.57;;;12.80;70.50;;;;;;4624290;30;20459;-82
2024/02/03 05:46:14;;;;;;;10.68;4.63;;;12.80;70.50;;;;;;4626046;30;20550;-82
2024/02/03 05:48:40;;;;;;;17.17;4.63;;;12.80;70.50;;;;;;4607954;30;20133;-82
2024/02/03 05:51:06;;;;;;;13.35;4.28;;;12.80;70.50;;;;;;4640026;30;20061;-81
2024/02/03 05:53:35;;;;;;;13.60;4.05;;;12.80;70.50;;;;;;4624206;30;20050;-83
2024/02/03 05:56:05;;;;;;;13.55;3.88;;;12.80;70.50;;;;;;4622632;30;20031;-83
2024/02/03 05:58:31;;;;;;;14.45;4.88;;;12.80;70.50;;;;;;4646547;30;20050;-82
2024/02/03 06:00:56;;;;;;;19.25;4.22;;;12.80;70.50;;;;;;4625480;30;20051;-80
2024/02/03 06:03:26;;;;;;;14.18;4.10;;;12.80;70.50;;;;;;4639124;30;20047;-81
2024/02/03 06:05:52;;;;;;;19.88;4.15;;;12.80;70.50;;;;;;4620176;30;20043;-82
2024/02/03 06:08:18;;;;;;;15.88;4.45;;;12.80;70.50;;;;;;4638055;30;20043;-82
2024/02/03 06:10:44;;;;;;;15.50;3.40;;;12.70;70.30;;;;;;4637590;30;20050;-80
2024/02/03 06:13:10;;;;;;;13.48;4.20;;;12.70;70.30;;;;;;4625652;30;20078;-80
2024/02/03 06:15:36;;;;;;;12.13;3.83;;;12.70;70.40;;;;;;4631491;30;20042;-81
2024/02/03 06:18:01;;;;;;;17.67;4.70;;;12.70;70.40;;;;;;4638337;30;20544;-82
2024/02/03 06:20:27;;;;;;;18.75;3.58;;;12.70;70.40;;;;;;4638484;30;20117;-81
2024/02/03 06:22:53;;;;;;;19.00;4.93;;;12.70;70.40;;;;;;4627688;30;20050;-80
2024/02/03 06:25:23;;;;;;;19.88;4.93;;;12.70;70.40;;;;;;4620712;30;20123;-80
2024/02/03 06:27:49;;;;;;;13.07;4.57;;;12.70;70.50;;;;;;4622101;30;20527;-79
2024/02/03 06:30:18;;;;;;;15.63;4.30;;;12.70;71.00;;;;;;4634777;30;20035;-83
2024/02/03 06:32:44;;;;;;;15.88;5.30;;;12.70;70.50;;;;;;4621357;30;20472;-84
2024/02/03 06:35:10;;;;;;;14.35;4.50;;;12.70;70.50;;;;;;4647009;30;20476;-83
2024/02/03 06:37:36;;;;;;;24.55;7.50;;;12.70;70.50;;;;;;4613682;30;20050;-85
2024/02/03 06:40:02;;;;;;;18.90;5.07;;;12.70;70.60;;;;;;4620933;30;20470;-84
2024/02/03 06:42:28;;;;;;;16.95;5.25;;;12.70;70.60;;;;;;4636525;30;20477;-84
2024/02/03 06:44:54;;;;;;;16.65;4.38;;;12.70;70.60;;;;;;4630158;30;20055;-83
2024/02/03 06:47:20;;;;;;;15.55;5.18;;;12.70;70.60;;;;;;4628149;30;20199;-82
2024/02/03 06:49:46;;;;;;;14.65;4.93;;;12.70;70.60;;;;;;4621145;30;20043;-84
2024/02/03 06:52:12;;;;;;;19.30;4.65;;;12.70;70.60;;;;;;4637460;30;20416;-83
2024/02/03 06:54:38;;;;;;;17.52;4.78;;;12.70;70.70;;;;;;4620741;30;20085;-81
2024/02/03 06:57:04;;;;;;;13.23;4.25;;;12.70;70.70;;;;;;4635888;30;20820;-82
2024/02/03 06:59:30;;;;;;;16.77;4.78;;;12.70;70.70;;;;;;4643941;30;20389;-81
2024/02/03 07:01:56;;;;;;;12.45;4.32;;;12.70;70.70;;;;;;4640076;30;20065;-81
2024/02/03 07:04:22;;;;;;;13.77;4.20;;;12.70;70.70;;;;;;4612007;30;20484;-81
2024/02/03 07:06:48;;;;;;;15.05;3.80;;;12.70;70.70;;;;;;4637790;30;20118;-81
2024/02/03 07:09:14;;;;;;;15.52;4.68;;;12.70;70.80;;;;;;4636292;30;20051;-82
2024/02/03 07:11:40;;;;;;;14.27;4.80;;;12.70;70.80;;;;;;4636825;30;21425;-82
2024/02/03 07:14:06;;;;;;;12.75;3.47;;;12.70;70.80;;;;;;4634288;30;20424;-79
2024/02/03 07:16:32;;;;;;;14.52;4.10;;;12.70;70.80;;;;;;4639171;30;20065;-82
2024/02/03 07:18:58;;;;;;;11.40;4.10;;;12.70;70.90;;;;;;4638531;30;20076;-81
2024/02/03 07:21:24;;;;;;;10.45;3.33;;;12.70;70.90;;;;;;4638666;30;20041;-78
2024/02/03 07:23:50;;;;;;;12.25;3.33;;;12.70;70.90;;;;;;4637773;30;20048;-80
2024/02/03 07:26:17;;;;;;;9.45;2.90;;;12.70;71.00;;;;;;4657416;30;20537;-79
2024/02/03 07:28:43;;;;;;;9.15;3.08;;;12.70;71.20;;;;;;4655769;30;20073;-78
2024/02/03 07:31:09;;;;;;;9.45;2.72;;;12.70;71.30;;;;;;4657137;30;20051;-80
2024/02/03 07:33:35;;;;;;;13.43;4.30;;;12.80;71.60;;;;;;4661343;30;20035;-80
2024/02/03 07:36:01;;;;;;;10.05;2.75;;;12.80;71.60;;;;;;4644114;30;20354;-79
2024/02/03 07:38:27;;;;;;;12.85;3.67;;;12.80;71.70;;;;;;4646162;30;20126;-79
2024/02/03 07:40:54;;;;;;;8.30;2.70;;;12.80;71.80;;;;;;4646949;30;20089;-78
2024/02/03 07:43:20;;;;;;;10.40;3.35;;;12.90;72.10;;;;;;4637936;30;20540;-78
2024/02/03 07:45:45;;;;;;;4.88;2.60;;;12.90;72.10;;;;;;4623807;30;20198;-77
2024/02/03 07:48:11;;;;;;;9.07;3.28;;;12.90;72.30;;;;;;4638453;30;20047;-80
2024/02/03 07:50:37;;;;;;;11.98;2.83;;;12.90;72.30;;;;;;4636984;30;20154;-78
2024/02/03 07:53:03;;;;;;;8.10;2.80;;;13.00;72.60;;;;;;4642195;30;20627;-80
2024/02/03 07:55:30;;;;;;;9.30;2.70;;;13.00;72.70;;;;;;4623007;30;20125;-80
2024/02/03 07:57:56;;;;;;;5.10;2.17;;;13.00;72.70;;;;;;4637951;30;20053;-79
2024/02/03 08:00:22;;;;;;;9.35;3.00;;;13.00;72.80;;;;;;4620820;30;20536;-81
2024/02/03 08:02:48;;;;;;;7.40;2.83;;;13.00;72.90;;;;;;4639442;30;20515;-79
2024/02/03 08:05:14;;;;;;;8.70;2.45;;;13.10;73.10;;;;;;4621062;30;20066;-80
2024/02/03 08:07:40;;;;;;;6.07;2.30;;;13.10;73.20;;;;;;4641409;30;20184;-79
2024/02/03 08:10:06;;;;;;;7.32;2.58;;;13.10;73.20;;;;;;4641672;30;20081;-79
2024/02/03 08:12:32;;;;;;;8.35;2.80;;;13.10;73.20;;;;;;4638084;30;20214;-79
2024/02/03 08:14:58;;;;;;;6.05;2.40;;;13.10;73.30;;;;;;4637315;30;20035;-81
2024/02/03 08:17:24;;;;;;;9.13;2.70;;;13.10;73.40;;;;;;4639575;30;20042;-80
2024/02/03 08:19:50;;;;;;;8.73;3.53;;;13.20;73.60;;;;;;4626626;30;20050;-80
2024/02/03 08:22:17;;;;;;;9.90;2.70;;;13.20;73.60;;;;;;4638987;30;20137;-79
2024/02/03 08:24:43;;;;;;;8.90;2.88;;;13.20;73.60;;;;;;4636641;30;20090;-81
2024/02/03 08:27:09;;;;;;;10.80;3.22;;;13.20;73.70;;;;;;4637978;30;20065;-82
2024/02/03 08:29:35;;;;;;;9.25;3.28;;;13.20;73.70;;;;;;4628478;30;20117;-79
2024/02/03 08:32:01;;;;;;;8.80;3.85;;;13.20;73.70;;;;;;4635397;30;20085;-78
2024/02/03 08:34:28;;;;;;;10.25;3.58;;;13.20;73.70;;;;;;4627878;30;20557;-78
2024/02/03 08:36:53;;;;;;;12.50;3.75;;;13.30;73.90;;;;;;4639481;30;20031;-80
2024/02/03 08:39:19;;;;;;;11.77;3.63;;;13.30;73.90;;;;;;4642836;30;20075;-79
2024/02/03 08:41:46;;;;;;;10.50;3.92;;;13.30;74.00;;;;;;4635798;30;20348;-78
2024/02/03 08:44:12;;;;;;;12.52;3.67;;;13.30;74.00;;;;;;4624041;30;20196;-79
2024/02/03 08:46:38;;;;;;;12.27;4.68;;;13.30;74.00;;;;;;4639404;30;20038;-78
2024/02/03 08:49:04;;;;;;;11.88;3.30;;;13.40;74.10;;;;;;4622230;30;20121;-78
2024/02/03 08:51:30;;;;;;;9.35;3.45;;;13.30;73.90;;;;;;4635229;30;20050;-78
2024/02/03 08:53:55;;;;;;;10.85;4.10;;;13.30;73.90;;;;;;4635138;30;20051;-79
2024/02/03 08:56:21;;;;;;;12.68;4.05;;;13.30;73.90;;;;;;4637099;30;20582;-78
2024/02/03 08:58:47;;;;;;;10.25;3.05;;;13.30;73.90;;;;;;4642417;30;20913;-79
2024/02/03 09:01:13;;;;;;;11.52;3.80;;;13.30;73.90;;;;;;4630947;30;20468;-78
2024/02/03 09:03:39;;;;;;;12.82;4.32;;;13.30;73.90;;;;;;4632621;30;20319;-78
2024/02/03 09:06:05;;;;;;;13.40;4.35;;;13.30;73.90;;;;;;4635718;30;20493;-79
2024/02/03 09:08:31;;;;;;;17.30;4.28;;;13.30;73.90;;;;;;4623321;30;20046;-79
2024/02/03 09:10:59;;;;;;;16.20;4.57;;;13.30;73.80;;;;;;4620293;30;20042;-79
2024/02/03 09:13:26;;;;;;;14.73;4.63;;;13.30;73.80;;;;;;4620738;30;20047;-79
2024/02/03 09:15:52;;;;;;;8.98;4.75;;;13.30;73.70;;;;;;4637305;30;20077;-80
2024/02/03 09:18:18;;;;;;;11.88;4.18;;;13.30;73.60;;;;;;4640283;30;20516;-79
2024/02/03 09:20:44;;;;;;;10.18;4.47;;;13.30;73.60;;;;;;4638537;30;20408;-79
2024/02/03 09:23:10;;;;;;;12.02;5.00;;;13.30;73.50;;;;;;4636146;30;20042;-79
2024/02/03 09:25:39;;;;;;;13.85;4.43;;;13.30;73.50;;;;;;4635643;30;20508;-79
2024/02/03 09:28:06;;;;;;;15.23;5.07;;;13.30;73.40;;;;;;4637357;30;20039;-79
2024/02/03 09:30:32;;;;;;;19.65;5.18;;;13.30;73.30;;;;;;4637265;30;20077;-79
2024/02/03 09:32:58;;;;;;;10.38;4.65;;;13.40;73.50;;;;;;4636838;30;20047;-80
2024/02/03 09:35:27;;;;;;;15.52;5.70;;;13.30;73.30;;;;;;4637515;30;20038;-80
2024/02/03 09:37:52;;;;;;;15.50;4.82;;;13.30;73.20;;;;;;4634570;30;20074;-79
2024/02/03 09:40:21;;;;;;;10.70;6.43;;;13.40;73.40;;;;;;4632495;30;20042;-80
2024/02/03 09:42:49;;;;;;;20.52;5.75;;;13.30;73.20;;;;;;4638190;30;20038;-78
2024/02/03 09:45:15;;;;;;;10.88;3.95;;;13.30;73.10;;;;;;4645866;30;20050;-80
2024/02/03 09:47:42;;;;;;;10.68;3.38;;;13.30;73.10;;;;;;4617607;30;20444;-79
2024/02/03 09:50:08;;;;;;;10.02;2.92;;;13.30;73.50;;;;;;4631558;30;20113;-78
2024/02/03 09:52:34;;;;;;;10.73;3.25;;;13.50;74.00;;;;;;4641575;30;20128;-80
2024/02/03 09:55:00;;;;;;;10.63;2.97;;;13.60;74.20;;;;;;4635770;30;20076;-78
2024/02/03 09:57:27;;;;;;;12.15;3.30;;;13.80;74.30;;;;;;4618574;30;20034;-79
2024/02/03 09:59:53;;;;;;;11.20;3.08;;;13.90;74.20;;;;;;4642702;30;20095;-79
2024/02/03 10:02:20;;;;;;;8.00;3.65;;;14.10;74.20;;;;;;4632342;30;20145;-78
2024/02/03 10:04:47;;;;;;;9.68;3.40;;;14.30;74.10;;;;;;4637587;30;20114;-78
2024/02/03 10:07:19;;;;;;;10.65;3.60;;;14.50;74.30;;;;;;4635479;30;20421;-80
2024/02/03 10:09:46;;;;;;;10.18;3.58;;;14.60;74.00;;;;;;4631908;30;20345;-78
2024/02/03 10:12:19;;;;;;;12.05;3.97;;;14.70;73.80;;;;;;4619801;30;20108;-79
2024/02/03 10:15:05;;;;;;;7.93;3.20;;;14.80;73.70;;;;;;4634411;30;20046;-79
2024/02/03 10:17:32;;;;;;;8.00;3.17;;;14.90;73.70;;;;;;4636565;30;20058;-79
2024/02/03 10:20:01;;;;;;;9.73;3.10;;;15.00;73.60;;;;;;4627367;30;20234;-79
2024/02/03 10:22:27;;;;;;;12.18;3.67;;;15.10;73.60;;;;;;4616195;30;20116;-79
2024/02/03 10:24:58;;;;;;;9.70;2.83;;;15.10;73.40;;;;;;4636531;30;20046;-80
2024/02/03 10:27:24;;;;;;;9.05;2.75;;;15.20;73.30;;;;;;4633297;30;20102;-77
2024/02/03 10:29:57;;;;;;;7.65;2.75;;;15.30;73.30;;;;;;4619718;30;20129;-78
2024/02/03 10:32:23;;;;;;;8.90;3.40;;;15.30;73.10;;;;;;4620052;30;20153;-76
2024/02/03 10:34:51;;;;;;;6.47;2.72;;;15.30;72.90;;;;;;4631796;30;20040;-80
2024/02/03 10:37:17;;;;;;;7.00;2.42;;;15.40;72.90;;;;;;4625141;30;20190;-78
2024/02/03 10:39:44;;;;;;;8.13;3.65;;;15.50;72.90;;;;;;4624381;30;20042;-79
2024/02/03 10:42:19;;;;;;;9.82;2.53;;;15.50;72.80;;;;;;4642331;30;20586;-80
2024/02/03 10:45:05;;;;;;;7.45;3.38;;;15.50;72.60;;;;;;4634303;30;20309;-79
2024/02/03 10:47:37;;;;;;;7.47;3.15;;;15.60;72.60;;;;;;4637285;30;20039;-78
2024/02/03 10:50:09;;;;;;;7.88;3.30;;;15.60;72.50;;;;;;4633386;30;20060;-79
2024/02/03 10:52:37;;;;;;;9.53;2.87;;;15.60;72.30;;;;;;4627773;30;20043;-78
2024/02/03 10:55:10;;;;;;;7.15;2.63;;;15.70;72.40;;;;;;4643658;30;20356;-77
2024/02/03 10:57:37;;;;;;;8.10;3.33;;;15.70;72.20;;;;;;4621459;30;20101;-79
2024/02/03 11:00:06;;;;;;;8.85;2.80;;;15.70;72.20;;;;;;4637252;30;20105;-78
2024/02/03 11:02:33;;;;;;;5.63;2.90;;;15.70;72.00;;;;;;4638486;30;20407;-79
2024/02/03 11:05:00;;;;;;;8.95;3.28;;;15.70;72.00;;;;;;4629661;30;20166;-79
2024/02/03 11:07:27;;;;;;;6.97;3.25;;;15.80;72.00;;;;;;4643539;30;20222;-79
2024/02/03 11:09:56;;;;;;;6.43;2.45;;;15.80;71.80;;;;;;4624830;30;20510;-80
2024/02/03 11:12:22;;;;;;;5.53;2.50;;;15.90;71.90;;;;;;4640442;30;20491;-79
2024/02/03 11:14:48;;;;;;;11.63;3.35;;;15.90;71.70;;;;;;4638295;30;20543;-78
2024/02/03 11:17:14;;;;;;;6.95;2.65;;;15.90;71.60;;;;;;4626612;30;20049;-79
2024/02/03 11:19:44;;;;;;;8.23;2.70;;;15.90;71.50;;;;;;4650867;30;20126;-79
2024/02/03 11:22:19;;;;;;;7.07;2.53;;;16.00;71.60;;;;;;4650587;30;20051;-79
2024/02/03 11:24:45;;;;;;;12.15;3.67;;;16.00;71.40;;;;;;4618043;30;20327;-79
2024/02/03 11:27:12;;;;;;;6.38;2.30;;;16.00;71.30;;;;;;4637779;30;20066;-79
2024/02/03 11:29:47;;;;;;;8.60;3.25;;;16.10;71.40;;;;;;4623376;30;20146;-79
2024/02/03 11:32:17;;;;;;;5.78;2.55;;;16.10;71.30;;;;;;4622717;30;20199;-79
2024/02/03 11:34:43;;;;;;;9.23;2.47;;;16.20;71.30;;;;;;4621049;30;20512;-79
2024/02/03 11:37:15;;;;;;;5.35;2.97;;;16.20;71.20;;;;;;4636541;30;20038;-78
2024/02/03 11:39:41;;;;;;;;;;;16.30;71.20;;;;;;4637961;30;20479;-78
2024/02/03 11:42:09;;;;;;;6.32;3.25;;;16.30;71.00;;;;;;4639436;30;20357;-77
2024/02/03 11:44:47;;;;;;;7.75;3.22;;;16.40;71.10;;;;;;4644002;30;20062;-80
2024/02/03 11:47:19;;;;;;;7.82;3.20;;;16.40;70.80;;;;;;4636737;30;20149;-78
2024/02/03 11:49:50;;;;;;;6.22;2.33;;;16.50;70.90;;;;;;4617661;30;20038;-79
2024/02/03 11:52:16;;;;;;;8.98;3.00;;;16.50;70.70;;;;;;4642683;30;20046;-78
2024/02/03 11:54:42;;;;;;;11.13;3.08;;;16.60;70.70;;;;;;4624429;30;20063;-79
2024/02/03 11:57:17;;;;;;;7.68;3.20;;;16.60;70.50;;;;;;4644220;30;20049;-78
2024/02/03 11:59:43;;;;;;;5.72;2.60;;;16.70;70.60;;;;;;4640316;30;20057;-79
2024/02/03 12:02:16;;;;;;;8.48;3.38;;;16.70;70.50;;;;;;4624187;30;20476;-79
2024/02/03 12:04:42;;;;;;;;;;;16.70;70.30;;;;;;4607416;30;20142;-80
2024/02/03 12:07:08;;;;;;;7.38;2.83;;;16.80;70.40;;;;;;4621536;30;20007;-80
2024/02/03 12:09:34;;;;;;;10.50;3.10;;;16.80;70.30;;;;;;4625461;30;20124;-79
2024/02/03 12:12:00;;;;;;;10.77;3.90;;;16.80;70.20;;;;;;4635801;30;20058;-81
2024/02/03 12:14:28;;;;;;;7.55;2.53;;;16.90;70.20;;;;;;4621429;30;20035;-80
2024/02/03 12:16:54;;;;;;;6.60;2.95;;;16.90;70.10;;;;;;4635715;30;20043;-79
2024/02/03 12:19:23;;;;;;;8.25;2.65;;;16.90;70.00;;;;;;4626212;30;20217;-79
2024/02/03 12:21:50;;;;;;;7.63;2.63;;;16.90;70.40;;;;;;4639054;30;20110;-79
2024/02/03 12:24:17;;;;;;;7.47;3.30;;;17.00;69.90;;;;;;4637109;30;20023;-79
2024/02/03 12:26:43;;;;;;;8.70;3.20;;;17.00;69.80;;;;;;4637502;30;20234;-80
2024/02/03 12:29:11;;;;;;;8.50;3.05;;;17.00;69.70;;;;;;4623727;30;20034;-79
2024/02/03 12:31:37;;;;;;;7.03;3.20;;;17.10;69.80;;;;;;4628354;30;20137;-80
2024/02/03 12:34:03;;;;;;;6.80;3.17;;;17.10;69.70;;;;;;4621798;30;20290;-80
2024/02/03 12:36:30;;;;;;;10.88;3.58;;;17.10;69.60;;;;;;4619331;30;20512;-82
2024/02/03 12:38:59;;;;;;;8.40;2.55;;;17.10;69.40;;;;;;4624169;30;20051;-81
2024/02/03 12:41:25;;;;;;;7.57;3.22;;;17.20;69.50;;;;;;4621128;30;20043;-81
2024/02/03 12:43:52;;;;;;;7.65;3.28;;;17.20;69.40;;;;;;4623142;30;20054;-79